createdAt,value
2023-02-19T00:01:46.698Z,99134.46
2023-02-19T00:04:17.260Z,99131.34
2023-02-19T00:06:46.169Z,99132.14
2023-02-19T00:09:16.026Z,99133.00
2023-02-19T00:11:43.884Z,99131.41
2023-02-19T00:14:15.951Z,99132.86
2023-02-19T00:16:43.091Z,99132.89
2023-02-19T00:19:14.101Z,99135.64
2023-02-19T00:21:41.196Z,99133.79
2023-02-19T00:24:11.675Z,99135.04
2023-02-19T00:26:44.344Z,99129.45
2023-02-19T00:29:17.256Z,99136.15
2023-02-19T00:31:45.057Z,99135.98
2023-02-19T00:34:13.401Z,99135.97
2023-02-19T00:36:41.685Z,99136.05
2023-02-19T00:39:13.623Z,99139.08
2023-02-19T00:41:40.721Z,99138.97
2023-02-19T00:44:11.461Z,99139.00
2023-02-19T00:46:41.722Z,99134.89
2023-02-19T00:49:15.952Z,99137.27
2023-02-19T00:51:43.056Z,99136.86
2023-02-19T00:54:14.213Z,99134.91
2023-02-19T00:56:41.925Z,99128.69
2023-02-19T00:59:09.747Z,99129.16
2023-02-19T01:01:37.818Z,99130.90
2023-02-19T01:04:06.863Z,99128.30
2023-02-19T01:06:35.725Z,99129.44
2023-02-19T01:09:05.090Z,99126.96
2023-02-19T01:11:32.279Z,99130.23
2023-02-19T01:14:00.796Z,99132.55
2023-02-19T01:16:28.092Z,99131.00
2023-02-19T01:19:55.020Z,99133.06
2023-02-19T01:22:22.006Z,99132.78
2023-02-19T01:24:49.137Z,99135.81
2023-02-19T01:27:16.218Z,99134.31
2023-02-19T01:29:44.802Z,99131.79
2023-02-19T01:32:12.077Z,99130.59
2023-02-19T01:34:41.407Z,99129.95
2023-02-19T01:37:11.586Z,99124.73
2023-02-19T01:39:39.085Z,99120.48
2023-02-19T01:42:13.953Z,99115.89
2023-02-19T01:44:47.153Z,99114.66
2023-02-19T01:47:18.307Z,99118.46
2023-02-19T01:49:54.356Z,99119.45
2023-02-19T01:52:30.326Z,99117.86
2023-02-19T01:54:59.044Z,99117.29
2023-02-19T01:57:31.669Z,99119.15
2023-02-19T02:00:06.088Z,99120.46
2023-02-19T02:02:44.814Z,99118.31
2023-02-19T02:05:39.604Z,99119.96
2023-02-19T02:08:28.164Z,99122.98
2023-02-19T02:10:56.940Z,99121.35
2023-02-19T02:13:24.400Z,99124.96
2023-02-19T02:15:56.329Z,99129.86
2023-02-19T02:18:54.726Z,99121.83
2023-02-19T02:21:52.559Z,99124.66
2023-02-19T02:24:55.433Z,99130.91
2023-02-19T02:27:54.394Z,99130.86
2023-02-19T02:30:43.127Z,99129.86
2023-02-19T02:33:16.256Z,99139.37
2023-02-19T02:36:15.231Z,99136.61
2023-02-19T02:38:45.988Z,99141.69
2023-02-19T02:41:15.015Z,99146.64
2023-02-19T02:43:42.752Z,99149.96
2023-02-19T02:46:19.779Z,99161.83
2023-02-19T02:48:55.903Z,99164.02
2023-02-19T02:51:32.885Z,99166.98
2023-02-19T02:54:30.347Z,99172.30
2023-02-19T02:57:01.311Z,99170.46
2023-02-19T02:59:36.698Z,99166.23
2023-02-19T03:02:11.840Z,99163.80
2023-02-19T03:05:01.788Z,99155.84
2023-02-19T03:07:36.695Z,99149.92
2023-02-19T03:10:07.978Z,99143.62
2023-02-19T03:12:58.789Z,99146.31
2023-02-19T03:15:55.106Z,99147.65
2023-02-19T03:18:45.213Z,99153.88
2023-02-19T03:21:16.858Z,99151.22
2023-02-19T03:24:03.846Z,99154.94
2023-02-19T03:26:33.309Z,99160.46
2023-02-19T03:29:22.143Z,99159.83
2023-02-19T03:31:55.581Z,99159.98
2023-02-19T03:34:28.357Z,99163.85
2023-02-19T03:37:02.991Z,99167.77
2023-02-19T03:39:30.193Z,99170.49
2023-02-19T03:42:14.810Z,99172.98
2023-02-19T03:45:07.336Z,99168.96
2023-02-19T03:47:49.406Z,99168.69
2023-02-19T03:50:27.134Z,99163.16
2023-02-19T03:53:11.792Z,99167.40
2023-02-19T03:55:51.184Z,99173.15
2023-02-19T03:58:39.564Z,99169.65
2023-02-19T04:01:20.803Z,99169.02
2023-02-19T04:03:53.512Z,99172.27
2023-02-19T04:06:22.977Z,99176.55
2023-02-19T04:08:56.276Z,99175.27
2023-02-19T04:11:26.149Z,99186.81
2023-02-19T04:14:22.938Z,99188.50
2023-02-19T04:16:57.737Z,99193.97
2023-02-19T04:19:30.477Z,99198.71
2023-02-19T04:21:59.038Z,99197.33
2023-02-19T04:24:32.869Z,99202.70
2023-02-19T04:27:00.671Z,99206.70
2023-02-19T04:29:33.629Z,99210.70
2023-02-19T04:32:01.011Z,99211.34
2023-02-19T04:34:28.066Z,99208.72
2023-02-19T04:36:54.930Z,99213.30
2023-02-19T04:39:22.058Z,99217.42
2023-02-19T04:41:48.977Z,99222.73
2023-02-19T04:44:16.112Z,99225.65
2023-02-19T04:46:43.256Z,99226.32
2023-02-19T04:49:10.739Z,99226.85
2023-02-19T04:51:39.139Z,99230.52
2023-02-19T04:54:06.341Z,99233.19
2023-02-19T04:56:33.323Z,99235.91
2023-02-19T04:59:00.303Z,99234.16
2023-02-19T05:01:27.356Z,99234.91
2023-02-19T05:03:54.357Z,99241.84
2023-02-19T05:06:21.233Z,99247.59
2023-02-19T05:08:48.268Z,99243.13
2023-02-19T05:11:15.109Z,99250.50
2023-02-19T05:13:42.661Z,99249.40
2023-02-19T05:16:15.627Z,99249.64
2023-02-19T05:18:43.796Z,99247.05
2023-02-19T05:21:12.443Z,99251.48
2023-02-19T05:23:40.801Z,99249.98
2023-02-19T05:26:11.073Z,99246.95
2023-02-19T05:28:38.793Z,99245.20
2023-02-19T05:31:08.489Z,99238.77
2023-02-19T05:33:37.529Z,99239.85
2023-02-19T05:36:11.099Z,99243.77
2023-02-19T05:38:41.067Z,99242.77
2023-02-19T05:41:12.327Z,99236.77
2023-02-19T05:43:40.810Z,99236.52
2023-02-19T05:46:08.675Z,99239.27
2023-02-19T05:48:36.141Z,99236.82
2023-02-19T05:51:09.733Z,99237.36
2023-02-19T05:53:38.342Z,99237.62
2023-02-19T05:56:37.651Z,99237.72
2023-02-19T05:59:15.599Z,99239.62
2023-02-19T06:01:45.969Z,99237.42
2023-02-19T06:04:14.044Z,99232.92
2023-02-19T06:06:42.197Z,99232.86
2023-02-19T06:09:10.139Z,99232.23
2023-02-19T06:11:38.221Z,99229.74
2023-02-19T06:14:06.120Z,99226.60
2023-02-19T06:16:33.923Z,99226.59
2023-02-19T06:19:04.159Z,99228.95
2023-02-19T06:21:31.879Z,99229.38
2023-02-19T06:23:58.746Z,99232.94
2023-02-19T06:26:26.022Z,99232.92
2023-02-19T06:28:54.060Z,99233.23
2023-02-19T06:31:22.309Z,99237.25
2023-02-19T06:33:50.111Z,99235.73
2023-02-19T06:36:19.257Z,99237.40
2023-02-19T06:38:46.452Z,99237.34
2023-02-19T06:41:20.085Z,99238.05
2023-02-19T06:43:47.212Z,99240.39
2023-02-19T06:46:14.300Z,99238.39
2023-02-19T06:48:45.010Z,99236.09
2023-02-19T06:51:25.881Z,99235.46
2023-02-19T06:53:53.395Z,99234.88
2023-02-19T06:56:22.646Z,99235.21
2023-02-19T06:58:51.646Z,99236.17
2023-02-19T07:01:18.595Z,99238.44
2023-02-19T07:03:46.265Z,99240.25
2023-02-19T07:06:13.489Z,99239.14
2023-02-19T07:08:43.049Z,99238.88
2023-02-19T07:11:10.603Z,99234.52
2023-02-19T07:13:37.698Z,99235.04
2023-02-19T07:16:08.856Z,99243.01
2023-02-19T07:18:37.108Z,99245.14
2023-02-19T07:21:13.168Z,99246.85
2023-02-19T07:23:42.293Z,99247.06
2023-02-19T07:26:11.420Z,99246.91
2023-02-19T07:28:47.609Z,99247.91
2023-02-19T07:31:16.536Z,99239.56
2023-02-19T07:33:45.005Z,99236.96
2023-02-19T07:36:13.865Z,99238.09
2023-02-19T07:38:40.833Z,99243.01
2023-02-19T07:41:08.512Z,99246.68
2023-02-19T07:43:37.982Z,99249.69
2023-02-19T07:46:10.964Z,99257.61
2023-02-19T07:48:39.529Z,99253.52
2023-02-19T07:51:12.318Z,99253.23
2023-02-19T07:53:39.389Z,99249.32
2023-02-19T07:56:07.492Z,99249.72
2023-02-19T07:58:34.976Z,99253.58
2023-02-19T08:01:48.528Z,99247.42
2023-02-19T08:04:16.053Z,99244.93
2023-02-19T08:06:43.802Z,99243.64
2023-02-19T08:09:10.968Z,99245.59
2023-02-19T08:12:00.196Z,99244.49
2023-02-19T08:14:29.274Z,99242.35
2023-02-19T08:16:56.432Z,99246.82
2023-02-19T08:19:24.178Z,99247.29
2023-02-19T08:21:51.379Z,99245.92
2023-02-19T08:24:20.138Z,99242.27
2023-02-19T08:26:46.993Z,99243.96
2023-02-19T08:29:13.901Z,99250.27
2023-02-19T08:31:41.646Z,99247.87
2023-02-19T08:34:09.094Z,99250.90
2023-02-19T08:36:38.876Z,99248.30
2023-02-19T08:39:06.015Z,99253.19
2023-02-19T08:41:33.103Z,99253.98
2023-02-19T08:44:00.106Z,99256.30
2023-02-19T08:46:29.520Z,99251.50
2023-02-19T08:48:56.378Z,99246.30
2023-02-19T08:51:23.306Z,99250.72
2023-02-19T08:53:50.190Z,99250.05
2023-02-19T08:56:17.202Z,99251.30
2023-02-19T08:58:44.338Z,99247.69
2023-02-19T09:01:14.770Z,99243.27
2023-02-19T09:03:42.583Z,99236.75
2023-02-19T09:06:18.392Z,99236.98
2023-02-19T09:08:46.130Z,99233.09
2023-02-19T09:11:13.660Z,99224.83
2023-02-19T09:13:41.745Z,99222.98
2023-02-19T09:16:10.275Z,99223.08
2023-02-19T09:18:37.392Z,99227.67
2023-02-19T09:21:06.252Z,99227.98
2023-02-19T09:23:34.919Z,99228.14
2023-02-19T09:26:09.451Z,99233.13
2023-02-19T09:28:40.961Z,99233.66
2023-02-19T09:31:11.176Z,99232.05
2023-02-19T09:33:45.550Z,99236.73
2023-02-19T09:36:15.008Z,99239.42
2023-02-19T09:38:42.314Z,99231.30
2023-02-19T09:41:17.867Z,99235.66
2023-02-19T09:43:46.686Z,99232.78
2023-02-19T09:46:32.062Z,99229.37
2023-02-19T09:49:11.286Z,99228.16
2023-02-19T09:51:41.118Z,99223.46
2023-02-19T09:54:25.552Z,99223.98
2023-02-19T09:56:57.137Z,99224.61
2023-02-19T09:59:40.682Z,99222.10
2023-02-19T10:02:15.538Z,99220.56
2023-02-19T10:04:44.864Z,99218.66
2023-02-19T10:07:14.874Z,99223.23
2023-02-19T10:09:48.058Z,99219.39
2023-02-19T10:12:18.348Z,99214.95
2023-02-19T10:14:49.761Z,99215.43
2023-02-19T10:17:25.700Z,99214.77
2023-02-19T10:19:53.448Z,99219.12
2023-02-19T10:22:20.364Z,99221.93
2023-02-19T10:24:52.001Z,99220.47
2023-02-19T10:27:19.335Z,99221.98
2023-02-19T10:29:48.600Z,99221.05
2023-02-19T10:32:26.812Z,99219.20
2023-02-19T10:35:23.123Z,99220.91
2023-02-19T10:37:51.217Z,99221.59
2023-02-19T10:40:23.316Z,99218.73
2023-02-19T10:42:58.788Z,99215.34
2023-02-19T10:45:38.475Z,99214.84
2023-02-19T10:48:07.220Z,99213.70
2023-02-19T10:50:46.484Z,99219.31
2023-02-19T10:53:34.717Z,99219.54
2023-02-19T10:56:08.275Z,99221.39
2023-02-19T10:58:39.666Z,99222.92
2023-02-19T11:01:21.056Z,99227.42
2023-02-19T11:03:50.945Z,99226.73
2023-02-19T11:06:27.631Z,99231.14
2023-02-19T11:09:00.862Z,99228.62
2023-02-19T11:11:35.402Z,99226.38
2023-02-19T11:14:17.613Z,99226.58
2023-02-19T11:16:48.367Z,99222.16
2023-02-19T11:19:26.801Z,99216.19
2023-02-19T11:21:54.756Z,99217.55
2023-02-19T11:24:33.658Z,99217.64
2023-02-19T11:27:06.562Z,99212.30
2023-02-19T11:29:34.954Z,99211.18
2023-02-19T11:32:20.201Z,99205.16
2023-02-19T11:34:47.861Z,99208.45
2023-02-19T11:37:20.719Z,99209.87
2023-02-19T11:39:50.455Z,99213.02
2023-02-19T11:42:54.951Z,99211.47
2023-02-19T11:45:35.242Z,99210.61
2023-02-19T11:48:27.857Z,99208.40
2023-02-19T11:51:05.176Z,99213.04
2023-02-19T11:53:38.702Z,99208.23
2023-02-19T11:56:33.278Z,99210.27
2023-02-19T11:59:04.584Z,99207.78
2023-02-19T12:01:49.772Z,99212.64
2023-02-19T12:04:37.627Z,99215.52
2023-02-19T12:07:38.451Z,99222.32
2023-02-19T12:10:33.876Z,99229.30
2023-02-19T12:13:08.002Z,99234.89
2023-02-19T12:16:00.998Z,99232.66
2023-02-19T12:18:28.630Z,99230.68
2023-02-19T12:21:13.797Z,99236.05
2023-02-19T12:23:49.904Z,99230.61
2023-02-19T12:26:35.684Z,99236.39
2023-02-19T12:29:21.169Z,99239.95
2023-02-19T12:31:55.644Z,99240.80
2023-02-19T12:34:47.579Z,99247.38
2023-02-19T12:37:14.771Z,99253.70
2023-02-19T12:40:13.197Z,99253.00
2023-02-19T12:42:55.201Z,99255.41
2023-02-19T12:45:34.080Z,99252.98
2023-02-19T12:48:30.877Z,99249.83
2023-02-19T12:51:05.440Z,99246.39
2023-02-19T12:53:58.082Z,99237.30
2023-02-19T12:57:07.420Z,99230.35
2023-02-19T12:59:47.180Z,99234.77
2023-02-19T13:02:35.545Z,99241.08
2023-02-19T13:05:27.100Z,99245.31
2023-02-19T13:08:36.596Z,99245.52
2023-02-19T13:11:17.511Z,99252.67
2023-02-19T13:13:54.857Z,99253.11
2023-02-19T13:16:24.402Z,99256.14
2023-02-19T13:18:58.447Z,99255.99
2023-02-19T13:21:48.916Z,99262.34
2023-02-19T13:24:28.372Z,99269.76
2023-02-19T13:27:04.107Z,99279.42
2023-02-19T13:30:07.693Z,99277.52
2023-02-19T13:32:52.154Z,99273.63
2023-02-19T13:35:56.629Z,99268.81
2023-02-19T13:38:23.721Z,99261.20
2023-02-19T13:40:57.081Z,99256.34
2023-02-19T13:43:27.604Z,99251.63
2023-02-19T13:46:02.133Z,99254.13
2023-02-19T13:48:33.900Z,99252.33
2023-02-19T13:51:16.435Z,99249.98
2023-02-19T13:53:51.190Z,99250.17
2023-02-19T13:56:36.206Z,99248.86
2023-02-19T13:59:31.446Z,99245.27
2023-02-19T14:02:01.189Z,99244.11
2023-02-19T14:04:55.176Z,99251.19
2023-02-19T14:07:35.999Z,99261.02
2023-02-19T14:10:08.636Z,99262.33
2023-02-19T14:12:37.024Z,99264.73
2023-02-19T14:15:43.682Z,99265.50
2023-02-19T14:18:41.976Z,99267.17
2023-02-19T14:21:27.495Z,99265.20
2023-02-19T14:23:57.576Z,99265.00
2023-02-19T14:26:26.101Z,99265.58
2023-02-19T14:28:53.582Z,99265.20
2023-02-19T14:31:26.322Z,99264.72
2023-02-19T14:33:56.507Z,99257.95
2023-02-19T14:36:35.461Z,99261.28
2023-02-19T14:39:05.577Z,99271.30
2023-02-19T14:41:37.999Z,99271.45
2023-02-19T14:44:18.438Z,99266.98
2023-02-19T14:46:54.294Z,99271.80
2023-02-19T14:49:30.248Z,99281.93
2023-02-19T14:52:05.297Z,99288.17
2023-02-19T14:54:44.832Z,99280.52
2023-02-19T14:57:24.898Z,99273.02
2023-02-19T15:00:21.329Z,99268.55
2023-02-19T15:02:50.737Z,99263.46
2023-02-19T15:05:23.299Z,99265.11
2023-02-19T15:07:56.487Z,99267.75
2023-02-19T15:10:26.489Z,99276.42
2023-02-19T15:12:56.024Z,99271.33
2023-02-19T15:15:27.787Z,99272.48
2023-02-19T15:17:58.539Z,99276.41
2023-02-19T15:20:28.792Z,99277.25
2023-02-19T15:22:58.942Z,99278.46
2023-02-19T15:25:34.043Z,99272.49
2023-02-19T15:28:22.982Z,99268.23
2023-02-19T15:31:06.862Z,99272.48
2023-02-19T15:33:34.551Z,99268.29
2023-02-19T15:36:06.164Z,99268.52
2023-02-19T15:38:34.012Z,99272.52
2023-02-19T15:41:01.741Z,99268.20
2023-02-19T15:43:43.834Z,99270.84
2023-02-19T15:46:22.488Z,99268.15
2023-02-19T15:49:15.812Z,99265.67
2023-02-19T15:51:48.797Z,99261.14
2023-02-19T15:54:15.511Z,99263.41
2023-02-19T15:56:46.378Z,99266.37
2023-02-19T15:59:21.229Z,99278.05
2023-02-19T16:01:48.421Z,99279.12
2023-02-19T16:04:18.229Z,99288.88
2023-02-19T16:06:57.794Z,99305.33
2023-02-19T16:09:40.991Z,99299.42
2023-02-19T16:12:34.655Z,99302.71
2023-02-19T16:15:14.422Z,99303.02
2023-02-19T16:17:44.013Z,99301.45
2023-02-19T16:20:23.515Z,99302.38
2023-02-19T16:22:55.999Z,99302.29
2023-02-19T16:25:43.522Z,99308.87
2023-02-19T16:28:23.666Z,99315.86
2023-02-19T16:31:02.795Z,99321.11
2023-02-19T16:33:48.502Z,99323.63
2023-02-19T16:36:34.307Z,99322.52
2023-02-19T16:39:07.003Z,99323.66
2023-02-19T16:41:40.491Z,99322.46
2023-02-19T16:44:31.991Z,99319.60
2023-02-19T16:47:05.717Z,99313.14
2023-02-19T16:49:32.840Z,99312.58
2023-02-19T16:52:03.890Z,99311.30
2023-02-19T16:54:31.448Z,99316.45
2023-02-19T16:56:58.466Z,99319.23
2023-02-19T16:59:25.745Z,99323.09
2023-02-19T17:01:53.286Z,99324.65
2023-02-19T17:04:21.763Z,99321.89
2023-02-19T17:06:50.703Z,99325.08
2023-02-19T17:09:17.534Z,99320.98
2023-02-19T17:11:47.544Z,99321.48
2023-02-19T17:14:16.601Z,99321.84
2023-02-19T17:16:43.678Z,99324.07
2023-02-19T17:19:16.532Z,99325.55
2023-02-19T17:21:44.693Z,99329.39
2023-02-19T17:24:14.533Z,99332.61
2023-02-19T17:26:42.522Z,99333.02
2023-02-19T17:29:14.908Z,99334.23
2023-02-19T17:31:41.940Z,99331.39
2023-02-19T17:34:11.932Z,99339.18
2023-02-19T17:36:42.271Z,99342.16
2023-02-19T17:39:14.561Z,99341.95
2023-02-19T17:41:43.060Z,99344.27
2023-02-19T17:44:10.206Z,99350.38
2023-02-19T17:46:38.168Z,99348.85
2023-02-19T17:49:06.891Z,99348.55
2023-02-19T17:51:34.537Z,99349.41
2023-02-19T17:54:01.385Z,99344.63
2023-02-19T17:56:32.794Z,99342.30
2023-02-19T17:58:59.682Z,99343.52
2023-02-19T18:01:26.733Z,99344.77
2023-02-19T18:03:53.710Z,99346.45
2023-02-19T18:06:20.672Z,99349.45
2023-02-19T18:08:51.627Z,99352.03
2023-02-19T18:11:21.568Z,99358.46
2023-02-19T18:13:54.287Z,99359.24
2023-02-19T18:16:22.724Z,99364.30
2023-02-19T18:18:50.131Z,99366.61
2023-02-19T18:21:17.077Z,99367.95
2023-02-19T18:23:45.826Z,99370.83
2023-02-19T18:26:19.716Z,99370.70
2023-02-19T18:28:47.001Z,99369.48
2023-02-19T18:31:16.667Z,99372.47
2023-02-19T18:33:44.136Z,99371.69
2023-02-19T18:36:12.049Z,99365.71
2023-02-19T18:38:40.175Z,99359.12
2023-02-19T18:41:11.314Z,99359.70
2023-02-19T18:43:42.342Z,99361.03
2023-02-19T18:46:10.841Z,99358.86
2023-02-19T18:48:38.372Z,99361.56
2023-02-19T18:51:09.587Z,99357.89
2023-02-19T18:53:37.124Z,99356.36
2023-02-19T18:56:04.920Z,99355.97
2023-02-19T18:58:31.877Z,99354.27
2023-02-19T19:00:59.567Z,99353.59
2023-02-19T19:03:29.953Z,99352.20
2023-02-19T19:05:57.917Z,99347.95
2023-02-19T19:08:25.368Z,99343.52
2023-02-19T19:10:53.465Z,99343.06
2023-02-19T19:13:20.456Z,99346.71
2023-02-19T19:15:51.036Z,99343.44
2023-02-19T19:18:18.229Z,99342.86
2023-02-19T19:20:45.133Z,99341.17
2023-02-19T19:23:12.916Z,99337.88
2023-02-19T19:25:39.921Z,99340.02
2023-02-19T19:28:07.853Z,99341.65
2023-02-19T19:30:35.268Z,99334.40
2023-02-19T19:33:06.799Z,99339.37
2023-02-19T19:35:35.647Z,99335.73
2023-02-19T19:38:02.669Z,99332.51
2023-02-19T19:40:29.755Z,99336.02
2023-02-19T19:42:56.593Z,99335.50
2023-02-19T19:45:23.837Z,99333.64
2023-02-19T19:47:52.413Z,99336.71
2023-02-19T19:50:19.760Z,99335.37
2023-02-19T19:52:46.645Z,99330.52
2023-02-19T19:55:13.552Z,99332.58
2023-02-19T19:57:41.114Z,99337.07
2023-02-19T20:00:16.600Z,99340.59
2023-02-19T20:02:45.794Z,99339.41
2023-02-19T20:08:01.101Z,99346.77
2023-02-19T20:10:28.122Z,99348.31
2023-02-19T20:12:55.117Z,99348.70
2023-02-19T20:15:22.974Z,99343.41
2023-02-19T20:17:50.776Z,99341.46
2023-02-19T20:20:18.914Z,99346.63
2023-02-19T20:22:52.902Z,99347.39
2023-02-19T20:25:23.538Z,99349.44
2023-02-19T20:27:51.910Z,99351.61
2023-02-19T20:30:21.380Z,99347.05
2023-02-19T20:32:48.347Z,99340.46
2023-02-19T20:35:17.094Z,99336.87
2023-02-19T20:37:47.184Z,99331.15
2023-02-19T20:40:16.829Z,99331.96
2023-02-19T20:42:43.847Z,99331.70
2023-02-19T20:45:11.237Z,99326.98
2023-02-19T20:47:39.758Z,99330.80
2023-02-19T20:50:09.851Z,99331.86
2023-02-19T20:52:37.645Z,99329.13
2023-02-19T20:55:05.304Z,99330.02
2023-02-19T20:57:32.354Z,99333.58
2023-02-19T20:59:59.341Z,99332.47
2023-02-19T21:02:28.824Z,99330.56
2023-02-19T21:04:57.137Z,99334.79
2023-02-19T21:07:25.322Z,99332.88
2023-02-19T21:09:53.014Z,99332.41
2023-02-19T21:12:23.508Z,99331.18
2023-02-19T21:14:50.890Z,99327.81
2023-02-19T21:17:17.812Z,99328.14
2023-02-19T21:19:48.258Z,99334.56
2023-02-19T21:22:16.814Z,99334.89
2023-02-19T21:24:44.210Z,99338.09
2023-02-19T21:27:11.047Z,99339.56
2023-02-19T21:29:39.213Z,99345.81
2023-02-19T21:32:06.225Z,99347.69
2023-02-19T21:34:33.133Z,99355.92
2023-02-19T21:37:00.708Z,99357.08
2023-02-19T21:39:27.704Z,99350.80
2023-02-19T21:41:54.784Z,99348.33
2023-02-19T21:44:21.773Z,99342.04
2023-02-19T21:46:50.631Z,99337.82
2023-02-19T21:49:18.067Z,99336.20
2023-02-19T21:51:47.391Z,99337.75
2023-02-19T21:54:17.204Z,99339.31
2023-02-19T21:56:44.456Z,99336.52
2023-02-19T21:59:11.405Z,99335.93
2023-02-19T22:01:39.211Z,99333.76
2023-02-19T22:04:09.814Z,99338.34
2023-02-19T22:06:39.048Z,99341.26
2023-02-19T22:09:13.917Z,99338.34
2023-02-19T22:11:42.328Z,99331.29
2023-02-19T22:14:09.317Z,99336.08
2023-02-19T22:16:36.592Z,99339.98
2023-02-19T22:19:03.922Z,99340.43
2023-02-19T22:21:32.050Z,99337.54
2023-02-19T22:24:00.924Z,99341.14
2023-02-19T22:26:31.728Z,99338.80
2023-02-19T22:28:59.158Z,99339.65
2023-02-19T22:31:27.539Z,99334.86
2023-02-19T22:33:57.005Z,99334.05
2023-02-19T22:36:27.219Z,99336.52
2023-02-19T22:39:26.371Z,99333.83
2023-02-19T22:41:54.362Z,99336.05
2023-02-19T22:44:21.639Z,99345.98
2023-02-19T22:46:52.485Z,99347.73
2023-02-19T22:49:21.061Z,99346.02
2023-02-19T22:52:11.877Z,99345.65
2023-02-19T22:54:40.115Z,99341.83
2023-02-19T22:57:07.030Z,99340.80
2023-02-19T22:59:34.064Z,99342.52
2023-02-19T23:02:01.430Z,99344.08
2023-02-19T23:04:28.615Z,99344.27
2023-02-19T23:06:55.927Z,99346.59
2023-02-19T23:09:29.573Z,99349.70
2023-02-19T23:12:05.616Z,99345.52
2023-02-19T23:14:32.944Z,99351.64
2023-02-19T23:17:00.018Z,99354.42
2023-02-19T23:19:27.048Z,99347.75
2023-02-19T23:21:54.212Z,99348.08
2023-02-19T23:24:21.143Z,99352.89
2023-02-19T23:26:51.505Z,99350.38
2023-02-19T23:29:25.329Z,99346.20
2023-02-19T23:31:54.413Z,99344.85
2023-02-19T23:34:22.190Z,99342.77
2023-02-19T23:36:50.970Z,99348.35
2023-02-19T23:39:20.232Z,99350.23
2023-02-19T23:41:54.409Z,99350.70
2023-02-19T23:44:22.054Z,99344.07
2023-02-19T23:46:50.534Z,99340.91
2023-02-19T23:49:18.607Z,99343.76
2023-02-19T23:51:45.657Z,99343.38
2023-02-19T23:54:13.289Z,99342.02
2023-02-19T23:56:40.553Z,99338.20
2023-02-19T23:59:07.567Z,99336.88
